Time;durP1;ratioP1;P1;durP2;ratioP2;P2;SDS_P1;SDS_P2;PMS_P1;PMS_P2;Temp;Humidity;BMP_temperature;BMP_pressure;BME280_temperature;BME280_humidity;BME280_pressure;Samples;Min_cycle;Max_cycle;Signal;HPM_P1;HPM_P2
2022/09/12 00:01:24;;;;;;;2.62;1.30;;;17.70;57.90;;;;;;2353474;53;20999;-75
2022/09/12 00:03:54;;;;;;;2.60;1.12;;;17.60;58.00;;;;;;2389418;52;22116;-76
2022/09/12 00:06:23;;;;;;;2.60;1.12;;;17.60;57.90;;;;;;2330734;53;20985;-74
2022/09/12 00:08:58;;;;;;;2.53;1.17;;;17.60;57.90;;;;;;2330947;53;20941;-73
2022/09/12 00:11:24;;;;;;;2.85;1.50;;;17.60;58.00;;;;;;2330892;53;21281;-75
2022/09/12 00:13:53;;;;;;;2.72;1.08;;;17.60;58.00;;;;;;2498593;52;20948;-73
2022/09/12 00:16:21;;;;;;;2.20;1.10;;;17.50;58.00;;;;;;2331073;53;20985;-73
2022/09/12 00:18:48;;;;;;;2.28;1.12;;;17.50;58.00;;;;;;2330634;53;21000;-73
2022/09/12 00:21:15;;;;;;;2.90;1.20;;;17.50;58.00;;;;;;2331094;53;20936;-74
2022/09/12 00:23:41;;;;;;;2.60;1.10;;;17.50;58.10;;;;;;2330519;53;21381;-73
2022/09/12 00:26:07;;;;;;;2.17;1.12;;;17.40;58.00;;;;;;2367594;52;20932;-74
2022/09/12 00:28:34;;;;;;;2.10;1.05;;;17.40;58.00;;;;;;2329951;53;20933;-73
2022/09/12 00:31:03;;;;;;;2.50;1.20;;;17.40;58.00;;;;;;2331157;53;21977;-73
2022/09/12 00:33:30;;;;;;;3.22;1.30;;;17.40;58.00;;;;;;2362316;52;21040;-75
2022/09/12 00:35:56;;;;;;;4.78;1.55;;;17.40;58.00;;;;;;2362987;52;20929;-73
2022/09/12 00:38:23;;;;;;;2.70;1.30;;;17.30;58.00;;;;;;2342360;53;20972;-73
2022/09/12 00:40:49;;;;;;;2.60;1.20;;;17.30;58.10;;;;;;2331373;53;21443;-73
2022/09/12 00:43:37;;;;;;;2.22;1.20;;;17.30;58.10;;;;;;2330106;53;22322;-75
2022/09/12 00:46:50;;;;;;;3.75;1.52;;;17.30;58.20;;;;;;2327767;53;20928;-73
2022/09/12 00:49:28;;;;;;;;;;;17.20;58.20;;;;;;2389229;52;21028;-73
2022/09/12 00:52:05;;;;;;;2.33;1.12;;;17.20;58.10;;;;;;2330791;53;20121;-75
2022/09/12 00:54:35;;;;;;;2.30;1.10;;;17.20;58.10;;;;;;2331404;53;20940;-73
2022/09/12 00:57:02;;;;;;;2.50;1.33;;;17.10;58.10;;;;;;2343951;53;20932;-74
2022/09/12 00:59:32;;;;;;;2.50;1.25;;;17.10;58.20;;;;;;2338664;53;20944;-73
2022/09/12 01:01:58;;;;;;;2.30;1.10;;;17.10;58.30;;;;;;2368374;52;20933;-75
2022/09/12 01:04:25;;;;;;;2.28;1.30;;;17.10;58.40;;;;;;2576359;52;21461;-72
2022/09/12 01:06:52;;;;;;;4.12;1.00;;;17.10;58.40;;;;;;2331206;53;20960;-73
2022/09/12 01:09:20;;;;;;;2.40;1.30;;;17.10;58.40;;;;;;2342394;53;20948;-73
2022/09/12 01:11:47;;;;;;;2.58;1.30;;;17.10;58.40;;;;;;2340962;53;21046;-73
2022/09/12 01:14:14;;;;;;;2.05;1.02;;;17.10;58.40;;;;;;2330646;53;20905;-75
2022/09/12 01:16:41;;;;;;;1.73;1.00;;;17.10;58.40;;;;;;2349076;52;21120;-73
2022/09/12 01:19:26;;;;;;;2.75;1.20;;;17.10;58.40;;;;;;2330633;53;20921;-74
2022/09/12 01:23:06;;;;;;;2.62;1.02;;;17.10;58.40;;;;;;2386486;52;20949;-73
2022/09/12 01:27:40;;;;;;;3.53;1.30;;;17.00;58.30;;;;;;2415692;52;21482;-76
2022/09/12 01:31:56;;;;;;;1.75;0.82;;;17.00;58.70;;;;;;2331838;53;20932;-73
2022/09/12 01:34:27;;;;;;;2.47;1.10;;;17.00;58.30;;;;;;2352943;53;20964;-75
2022/09/12 01:37:33;;;;;;;4.35;1.10;;;17.00;58.20;;;;;;2331100;53;21175;-73
2022/09/12 01:42:10;;;;;;;2.17;1.08;;;16.90;58.50;;;;;;2331041;53;20941;-73
2022/09/12 01:44:45;;;;;;;2.05;1.00;;;16.90;58.40;;;;;;2366241;52;21003;-73
2022/09/12 01:47:19;;;;;;;3.30;1.42;;;16.90;58.40;;;;;;2329668;53;20980;-74
2022/09/12 01:50:00;;;;;;;2.50;1.33;;;16.90;58.60;;;;;;2330283;53;20971;-72
2022/09/12 01:55:40;;;;;;;2.92;1.30;;;16.90;58.90;;;;;;2330145;53;20948;-73
2022/09/12 01:58:16;;;;;;;2.03;1.00;;;16.90;58.80;;;;;;2330188;53;20956;-73
2022/09/12 02:01:01;;;;;;;2.00;0.95;;;16.80;58.50;;;;;;2331134;53;20932;-72
2022/09/12 02:03:32;;;;;;;2.70;1.25;;;16.80;58.70;;;;;;2329446;53;21341;-75
2022/09/12 02:06:46;;;;;;;2.17;1.10;;;16.80;58.70;;;;;;2329748;53;21055;-73
2022/09/12 02:09:19;;;;;;;2.30;1.08;;;16.80;58.80;;;;;;2329789;53;20925;-72
2022/09/12 02:11:46;;;;;;;2.33;1.20;;;16.80;58.70;;;;;;2329833;53;21012;-73
2022/09/12 02:14:15;;;;;;;3.40;1.12;;;16.80;58.70;;;;;;2329399;53;21408;-75
2022/09/12 02:17:00;;;;;;;2.05;1.08;;;16.80;58.70;;;;;;2329967;53;20933;-72
2022/09/12 02:19:28;;;;;;;2.25;1.20;;;16.80;58.80;;;;;;2331103;53;20979;-73
2022/09/12 02:21:57;;;;;;;4.30;1.40;;;16.80;58.70;;;;;;2336012;53;21012;-74
2022/09/12 02:24:28;;;;;;;2.53;1.20;;;16.70;58.60;;;;;;2340823;53;20946;-73
2022/09/12 02:27:10;;;;;;;3.40;1.30;;;16.70;58.70;;;;;;2344850;53;21027;-73
2022/09/12 02:29:38;;;;;;;4.15;1.37;;;16.70;58.70;;;;;;2389240;52;20949;-73
2022/09/12 02:32:06;;;;;;;5.95;1.70;;;16.70;58.60;;;;;;2331666;53;20949;-73
2022/09/12 02:36:08;;;;;;;3.45;1.40;;;16.70;58.60;;;;;;2330191;53;21551;-75
2022/09/12 02:38:44;;;;;;;3.03;1.30;;;16.70;58.60;;;;;;2352958;53;20979;-75
2022/09/12 02:41:11;;;;;;;3.00;1.60;;;16.60;58.40;;;;;;2330236;53;21427;-74
2022/09/12 02:43:37;;;;;;;3.50;1.60;;;16.60;58.40;;;;;;2331985;53;20921;-73
2022/09/12 02:46:09;;;;;;;2.72;1.20;;;16.60;58.50;;;;;;2329676;53;20957;-73
2022/09/12 02:48:36;;;;;;;2.33;1.13;;;16.60;58.50;;;;;;2339581;52;20904;-74
2022/09/12 02:51:02;;;;;;;2.22;1.12;;;16.50;58.50;;;;;;2330357;53;21112;-73
2022/09/12 02:53:29;;;;;;;2.40;1.23;;;16.50;58.50;;;;;;2330249;53;20933;-73
2022/09/12 02:55:55;;;;;;;3.37;1.20;;;16.50;58.50;;;;;;2357672;52;20921;-73
2022/09/12 02:58:23;;;;;;;2.42;1.05;;;16.50;58.50;;;;;;2330753;53;20960;-73
2022/09/12 03:01:28;;;;;;;2.22;1.00;;;16.50;58.50;;;;;;2330746;53;21385;-73
2022/09/12 03:05:30;;;;;;;2.50;1.20;;;16.50;58.60;;;;;;2330846;53;22053;-74
2022/09/12 03:08:29;;;;;;;3.50;1.17;;;16.40;58.40;;;;;;2331123;53;20953;-73
2022/09/12 03:11:14;;;;;;;2.20;1.20;;;16.40;58.50;;;;;;2336043;53;20972;-73
2022/09/12 03:14:14;;;;;;;2.40;1.10;;;16.30;58.40;;;;;;2344895;53;21083;-73
2022/09/12 03:17:44;;;;;;;2.15;0.95;;;16.30;58.40;;;;;;2331432;53;20953;-75
2022/09/12 03:20:23;;;;;;;2.45;1.05;;;16.30;58.50;;;;;;2486199;52;20996;-74
2022/09/12 03:23:04;;;;;;;2.50;1.10;;;16.20;58.40;;;;;;2332138;53;20985;-73
2022/09/12 03:25:49;;;;;;;3.47;1.20;;;16.20;58.50;;;;;;2455436;52;20941;-73
2022/09/12 03:28:15;;;;;;;3.90;1.40;;;16.20;58.50;;;;;;2574471;52;20980;-72
2022/09/12 03:30:52;;;;;;;2.35;1.17;;;16.20;58.60;;;;;;2330775;53;20988;-73
2022/09/12 03:33:19;;;;;;;2.25;1.23;;;16.10;58.70;;;;;;2331655;53;21084;-73
2022/09/12 03:35:45;;;;;;;3.00;1.25;;;16.10;58.60;;;;;;2332463;53;20929;-73
2022/09/12 03:38:12;;;;;;;2.75;1.33;;;16.10;58.60;;;;;;2496624;52;21315;-74
2022/09/12 03:40:39;;;;;;;2.95;1.35;;;16.10;58.60;;;;;;2577788;52;21930;-73
2022/09/12 03:43:06;;;;;;;4.35;1.40;;;16.10;58.60;;;;;;2344882;53;20940;-75
2022/09/12 03:45:33;;;;;;;3.78;1.35;;;16.00;58.60;;;;;;2329328;53;20940;-72
2022/09/12 03:47:59;;;;;;;2.22;1.12;;;16.00;58.60;;;;;;2330121;53;21920;-73
2022/09/12 03:50:25;;;;;;;2.83;1.40;;;16.00;58.60;;;;;;2354748;53;20920;-72
2022/09/12 03:52:51;;;;;;;2.15;1.10;;;16.00;58.60;;;;;;2477793;52;21020;-72
2022/09/12 03:55:18;;;;;;;2.42;1.10;;;16.00;58.60;;;;;;2330068;53;20920;-73
2022/09/12 03:57:44;;;;;;;2.50;1.12;;;16.00;58.50;;;;;;2330640;53;22004;-73
2022/09/12 04:00:11;;;;;;;1.98;1.02;;;16.00;58.50;;;;;;2329447;53;21004;-72
2022/09/12 04:02:40;;;;;;;2.60;1.20;;;15.90;58.50;;;;;;2574693;52;21052;-75
2022/09/12 04:05:07;;;;;;;2.40;1.23;;;15.90;58.50;;;;;;2339953;53;20968;-72
2022/09/12 04:07:34;;;;;;;3.50;1.25;;;15.90;58.50;;;;;;2590065;52;21103;-72
2022/09/12 04:10:00;;;;;;;2.35;1.20;;;15.90;58.50;;;;;;2330610;53;20901;-73
2022/09/12 04:12:27;;;;;;;2.60;1.48;;;15.90;58.50;;;;;;2575393;52;20964;-75
2022/09/12 04:14:54;;;;;;;7.78;1.27;;;15.80;58.40;;;;;;2330670;53;21451;-74
2022/09/12 04:17:20;;;;;;;2.60;1.10;;;15.80;58.40;;;;;;2332615;53;21023;-72
2022/09/12 04:19:46;;;;;;;2.40;1.20;;;15.80;58.40;;;;;;2330860;53;21437;-74
2022/09/12 04:22:12;;;;;;;2.00;0.90;;;15.70;58.30;;;;;;2576451;52;22049;-73
2022/09/12 04:24:39;;;;;;;2.67;1.30;;;15.70;58.30;;;;;;2359046;53;21927;-74
2022/09/12 04:27:05;;;;;;;2.22;1.10;;;15.70;58.40;;;;;;2331035;53;20941;-72
2022/09/12 04:29:34;;;;;;;2.70;1.55;;;15.70;58.40;;;;;;2330349;53;21571;-74
2022/09/12 04:32:01;;;;;;;2.28;1.17;;;15.70;58.60;;;;;;2575840;52;21040;-74
2022/09/12 04:34:30;;;;;;;2.58;1.33;;;15.60;58.80;;;;;;2576417;52;21350;-73
2022/09/12 04:36:56;;;;;;;2.40;1.20;;;15.60;58.90;;;;;;2333757;53;21067;-72
2022/09/12 04:39:23;;;;;;;2.72;1.62;;;15.60;58.90;;;;;;2390250;52;20968;-73
2022/09/12 04:41:49;;;;;;;2.92;1.52;;;15.60;59.10;;;;;;2337263;53;20944;-76
2022/09/12 04:44:15;;;;;;;3.12;1.70;;;15.60;59.10;;;;;;2330970;53;20944;-76
2022/09/12 04:46:43;;;;;;;3.05;1.45;;;15.60;59.30;;;;;;2351226;53;20933;-72
2022/09/12 04:49:10;;;;;;;2.72;1.52;;;15.60;59.50;;;;;;2331767;53;21095;-71
2022/09/12 04:51:39;;;;;;;3.03;1.50;;;15.60;59.40;;;;;;2330482;53;21349;-74
2022/09/12 04:54:07;;;;;;;2.67;1.48;;;15.60;59.30;;;;;;2352747;53;20944;-71
2022/09/12 04:56:37;;;;;;;3.37;1.40;;;15.60;59.30;;;;;;2332292;53;20921;-73
2022/09/12 04:59:04;;;;;;;3.42;1.50;;;15.60;59.30;;;;;;2330543;53;20965;-72
2022/09/12 05:01:30;;;;;;;2.78;1.52;;;15.60;59.20;;;;;;2330719;53;21528;-73
2022/09/12 05:03:58;;;;;;;2.95;1.30;;;15.60;59.30;;;;;;2330961;53;21618;-73
2022/09/12 05:06:26;;;;;;;3.50;1.67;;;15.60;59.20;;;;;;2330441;53;21059;-73
2022/09/12 05:08:52;;;;;;;2.60;1.40;;;15.60;59.20;;;;;;2395538;52;21038;-72
2022/09/12 05:11:24;;;;;;;2.83;1.50;;;15.60;59.20;;;;;;2330679;53;20932;-73
2022/09/12 05:13:51;;;;;;;2.20;1.20;;;15.60;59.10;;;;;;2331266;53;20953;-72
2022/09/12 05:16:18;;;;;;;2.70;1.50;;;15.60;59.10;;;;;;2339624;53;21487;-73
2022/09/12 05:18:45;;;;;;;3.10;1.65;;;15.60;59.10;;;;;;2342942;53;20920;-75
2022/09/12 05:21:12;;;;;;;2.97;1.70;;;15.60;59.10;;;;;;2331240;53;20988;-72
2022/09/12 05:23:38;;;;;;;2.80;1.50;;;15.60;59.10;;;;;;2330576;53;21753;-72
2022/09/12 05:26:05;;;;;;;2.97;1.77;;;15.60;59.10;;;;;;2347007;53;22026;-72
2022/09/12 05:28:34;;;;;;;2.70;1.35;;;15.60;59.10;;;;;;2568131;52;25027;-73
2022/09/12 05:31:20;;;;;;;2.97;1.48;;;15.60;59.20;;;;;;2329467;53;20928;-73
2022/09/12 05:33:47;;;;;;;2.37;1.25;;;15.60;59.20;;;;;;2329931;53;20995;-72
2022/09/12 05:36:19;;;;;;;3.05;1.60;;;15.60;59.20;;;;;;2330176;53;21521;-72
2022/09/12 05:38:45;;;;;;;3.30;1.95;;;15.60;59.30;;;;;;2332427;53;20965;-71
2022/09/12 05:41:19;;;;;;;3.25;1.65;;;15.60;59.30;;;;;;2570631;52;20908;-73
2022/09/12 05:43:51;;;;;;;4.65;2.00;;;15.60;59.40;;;;;;2330828;53;20992;-72
2022/09/12 05:46:18;;;;;;;2.50;1.30;;;15.60;59.40;;;;;;2471717;52;21976;-76
2022/09/12 05:48:45;;;;;;;3.25;1.80;;;15.50;59.30;;;;;;2339083;53;20933;-74
2022/09/12 05:51:24;;;;;;;2.87;1.55;;;15.50;59.30;;;;;;2330196;53;21087;-73
2022/09/12 05:53:58;;;;;;;3.70;1.77;;;15.60;59.40;;;;;;2365223;52;21615;-74
2022/09/12 05:56:26;;;;;;;2.72;1.50;;;15.60;59.40;;;;;;2330636;53;20949;-72
2022/09/12 05:59:17;;;;;;;3.05;1.48;;;15.60;59.40;;;;;;2331492;53;20944;-75
2022/09/12 06:01:44;;;;;;;2.58;1.30;;;15.60;59.80;;;;;;2412221;52;21344;-72
2022/09/12 06:04:10;;;;;;;4.60;1.77;;;15.60;59.60;;;;;;2575055;52;21609;-73
2022/09/12 06:06:40;;;;;;;2.85;1.48;;;15.60;59.60;;;;;;2339440;53;20998;-73
2022/09/12 06:09:06;;;;;;;3.60;1.58;;;15.60;59.70;;;;;;2339805;53;22222;-72
2022/09/12 06:11:34;;;;;;;4.78;1.70;;;15.60;59.70;;;;;;2334395;53;20983;-73
2022/09/12 06:14:00;;;;;;;2.53;1.45;;;15.60;59.80;;;;;;2330531;53;20944;-73
2022/09/12 06:16:27;;;;;;;3.03;1.67;;;15.60;59.80;;;;;;2330802;53;21380;-72
2022/09/12 06:18:55;;;;;;;3.15;1.60;;;15.60;59.90;;;;;;2353586;53;20947;-73
2022/09/12 06:21:21;;;;;;;2.75;1.55;;;15.60;60.00;;;;;;2345575;53;20953;-73
2022/09/12 06:23:48;;;;;;;3.10;1.67;;;15.70;60.20;;;;;;2397303;52;21552;-73
2022/09/12 06:26:16;;;;;;;4.75;1.98;;;15.70;60.30;;;;;;2353589;53;21157;-72
2022/09/12 06:28:46;;;;;;;3.70;1.90;;;15.70;60.40;;;;;;2339344;53;20953;-73
2022/09/12 06:31:17;;;;;;;3.25;1.87;;;15.80;60.70;;;;;;2330757;53;21474;-72
2022/09/12 06:33:46;;;;;;;3.12;1.67;;;15.80;60.80;;;;;;2576339;52;20984;-75
2022/09/12 06:36:21;;;;;;;4.43;2.00;;;15.90;61.00;;;;;;2330731;53;20955;-74
2022/09/12 06:38:50;;;;;;;3.47;1.87;;;15.90;61.20;;;;;;2334943;53;20956;-73
2022/09/12 06:41:16;;;;;;;4.60;2.17;;;16.00;61.40;;;;;;2330164;53;20995;-73
2022/09/12 06:43:42;;;;;;;3.12;2.00;;;16.00;61.50;;;;;;2330426;53;20957;-74
2022/09/12 06:46:09;;;;;;;3.67;2.08;;;16.10;61.80;;;;;;2330724;53;20956;-73
2022/09/12 06:48:35;;;;;;;6.40;3.03;;;16.20;62.00;;;;;;2330720;53;21056;-73
2022/09/12 06:51:09;;;;;;;3.80;2.35;;;16.20;62.10;;;;;;2575360;52;20932;-76
2022/09/12 06:53:35;;;;;;;4.95;2.95;;;16.30;62.60;;;;;;2429981;52;21016;-75
2022/09/12 06:56:04;;;;;;;5.65;2.65;;;16.40;62.50;;;;;;2332456;53;20996;-74
2022/09/12 06:58:31;;;;;;;4.10;2.70;;;16.50;62.60;;;;;;2330190;53;20960;-73
2022/09/12 07:01:08;;;;;;;4.12;2.70;;;16.50;62.70;;;;;;2486555;52;20999;-75
2022/09/12 07:03:34;;;;;;;3.65;2.25;;;16.60;62.90;;;;;;2527893;52;20967;-73
2022/09/12 07:06:11;;;;;;;4.00;2.55;;;16.70;62.70;;;;;;2327277;53;20956;-74
2022/09/12 07:08:37;;;;;;;4.78;3.20;;;16.80;63.10;;;;;;2329780;53;20953;-73
2022/09/12 07:11:23;;;;;;;3.97;2.75;;;16.90;63.00;;;;;;2331055;53;21548;-73
2022/09/12 07:13:52;;;;;;;4.93;2.90;;;17.00;63.30;;;;;;2329271;53;20957;-74
2022/09/12 07:16:18;;;;;;;4.22;2.97;;;17.00;63.00;;;;;;2329942;53;21415;-73
2022/09/12 07:18:49;;;;;;;4.47;3.17;;;17.10;63.10;;;;;;2330767;53;21107;-73
2022/09/12 07:21:15;;;;;;;5.28;3.42;;;17.20;63.40;;;;;;2329731;53;20980;-76
2022/09/12 07:23:42;;;;;;;5.37;2.95;;;17.30;63.40;;;;;;2378409;53;20921;-77
2022/09/12 07:26:12;;;;;;;4.18;2.37;;;17.40;63.40;;;;;;2434141;52;21990;-74
2022/09/12 07:28:39;;;;;;;4.35;2.40;;;17.40;63.50;;;;;;2333358;52;20897;-75
2022/09/12 07:31:15;;;;;;;4.32;2.33;;;17.50;63.30;;;;;;2337268;53;21894;-74
2022/09/12 07:33:42;;;;;;;5.30;3.03;;;17.60;63.40;;;;;;2329062;53;22161;-74
2022/09/12 07:36:13;;;;;;;3.62;2.25;;;17.70;63.30;;;;;;2386774;52;20937;-76
2022/09/12 07:38:39;;;;;;;3.85;2.33;;;17.70;63.50;;;;;;2330959;53;20977;-74
2022/09/12 07:41:17;;;;;;;4.03;2.58;;;17.80;63.60;;;;;;2330070;53;21028;-76
2022/09/12 07:43:44;;;;;;;4.30;3.03;;;17.90;63.90;;;;;;2331830;53;20953;-77
2022/09/12 07:46:10;;;;;;;4.45;2.67;;;17.90;63.50;;;;;;2435952;52;21987;-75
2022/09/12 07:48:37;;;;;;;5.05;2.87;;;17.90;63.40;;;;;;2330419;53;20928;-74
2022/09/12 07:51:06;;;;;;;7.30;3.08;;;18.10;63.70;;;;;;2330172;53;20992;-75
2022/09/12 07:53:36;;;;;;;4.00;2.70;;;18.20;63.90;;;;;;2330871;53;21311;-76
2022/09/12 07:56:04;;;;;;;4.07;2.45;;;18.20;63.80;;;;;;2332866;53;21098;-74
2022/09/12 07:58:32;;;;;;;4.03;2.50;;;18.30;63.80;;;;;;2336895;53;21071;-74
2022/09/12 08:01:25;;;;;;;4.43;2.45;;;18.40;63.80;;;;;;2331124;53;21051;-75
2022/09/12 08:03:56;;;;;;;3.78;2.78;;;18.50;64.00;;;;;;2347753;53;21513;-74
2022/09/12 08:06:23;;;;;;;5.70;2.70;;;18.60;64.00;;;;;;2328318;53;20941;-74
2022/09/12 08:08:49;;;;;;;4.87;2.53;;;18.60;63.80;;;;;;2331900;53;20932;-76
2022/09/12 08:11:16;;;;;;;3.70;2.47;;;18.70;63.80;;;;;;2331123;53;21334;-74
2022/09/12 08:13:43;;;;;;;3.75;2.42;;;18.80;63.70;;;;;;2470095;52;21016;-75
2022/09/12 08:16:20;;;;;;;3.72;2.33;;;18.80;63.60;;;;;;2351403;53;21074;-75
2022/09/12 08:18:46;;;;;;;3.53;2.03;;;18.90;63.80;;;;;;2360495;53;20950;-78
2022/09/12 08:21:23;;;;;;;3.50;2.03;;;19.00;63.60;;;;;;2329608;53;20929;-74
2022/09/12 08:23:53;;;;;;;3.30;1.70;;;19.10;64.40;;;;;;2335600;53;20972;-76
2022/09/12 08:26:20;;;;;;;3.80;2.00;;;19.10;63.50;;;;;;2459271;52;22226;-75
2022/09/12 08:28:48;;;;;;;3.42;1.80;;;19.20;63.50;;;;;;2333473;53;20993;-74
2022/09/12 08:31:17;;;;;;;3.50;1.83;;;19.20;63.50;;;;;;2330767;53;20945;-75
2022/09/12 08:33:43;;;;;;;3.65;1.55;;;19.30;63.50;;;;;;2337737;53;20976;-77
2022/09/12 08:36:11;;;;;;;2.50;1.67;;;19.40;63.50;;;;;;2427180;52;20921;-76
2022/09/12 08:38:42;;;;;;;3.37;1.75;;;19.50;63.50;;;;;;2335972;52;20997;-74
2022/09/12 08:41:22;;;;;;;4.20;2.17;;;19.50;63.40;;;;;;2331331;53;21000;-75
2022/09/12 08:45:25;;;;;;;4.55;2.00;;;19.60;63.40;;;;;;2329554;53;20992;-76
2022/09/12 08:47:52;;;;;;;4.78;1.52;;;19.70;63.50;;;;;;2344177;52;20948;-76
2022/09/12 08:50:19;;;;;;;3.10;1.90;;;19.80;63.40;;;;;;2332169;53;20936;-76
2022/09/12 08:53:09;;;;;;;2.97;1.80;;;19.90;63.40;;;;;;2331700;53;20966;-74
2022/09/12 08:55:45;;;;;;;3.47;1.98;;;20.00;63.70;;;;;;2368374;52;21240;-74
2022/09/12 08:58:34;;;;;;;3.62;1.90;;;20.10;64.20;;;;;;2410984;52;21067;-77
2022/09/12 09:01:31;;;;;;;3.30;1.90;;;20.20;64.40;;;;;;2353305;53;21102;-74
2022/09/12 09:04:34;;;;;;;2.55;1.58;;;20.30;64.20;;;;;;2416860;52;21958;-77
2022/09/12 09:07:19;;;;;;;;;;;20.40;64.00;;;;;;2338403;53;21868;-76
2022/09/12 09:11:19;;;;;;;3.25;1.90;;;20.50;63.90;;;;;;2334064;53;20109;-77
2022/09/12 09:16:46;;;;;;;4.37;1.80;;;20.70;64.10;;;;;;2331073;53;20960;-76
2022/09/12 09:19:22;;;;;;;2.95;1.73;;;21.00;64.00;;;;;;2331820;53;20973;-75
2022/09/12 09:22:09;;;;;;;4.15;1.40;;;21.00;63.80;;;;;;2367103;52;21047;-74
2022/09/12 09:24:52;;;;;;;2.92;1.70;;;21.10;63.80;;;;;;2334152;53;20960;-75
2022/09/12 09:29:17;;;;;;;3.30;2.12;;;21.30;63.80;;;;;;2329507;53;20963;-75
2022/09/12 09:31:47;;;;;;;3.20;1.52;;;21.40;63.90;;;;;;2529307;52;20985;-75
2022/09/12 09:34:17;;;;;;;3.05;1.90;;;21.50;63.80;;;;;;2378450;52;21111;-75
2022/09/12 09:36:49;;;;;;;3.37;1.80;;;21.60;63.70;;;;;;2342478;53;20932;-75
2022/09/12 09:40:15;;;;;;;3.92;1.75;;;21.70;63.50;;;;;;2361499;53;21133;-75
2022/09/12 09:43:07;;;;;;;4.37;1.80;;;21.80;63.20;;;;;;2590180;52;21039;-75
2022/09/12 09:45:33;;;;;;;3.22;1.90;;;21.90;63.10;;;;;;2584215;52;21453;-75
2022/09/12 09:48:18;;;;;;;2.40;1.45;;;22.00;63.10;;;;;;2442102;52;20972;-78
2022/09/12 09:50:45;;;;;;;3.08;1.87;;;22.10;62.60;;;;;;2354201;53;20997;-76
2022/09/12 09:54:01;;;;;;;2.97;1.87;;;22.20;62.80;;;;;;2347914;53;20952;-76
2022/09/12 09:56:33;;;;;;;2.67;1.55;;;22.20;62.80;;;;;;2336607;52;21000;-78
2022/09/12 10:05:51;;;;;;;2.92;1.60;;;22.30;62.90;;;;;;2335868;53;20952;-78
2022/09/12 10:08:25;;;;;;;4.57;1.50;;;22.70;62.50;;;;;;2329839;53;20913;-75
2022/09/12 10:11:00;;;;;;;2.90;1.37;;;22.70;62.20;;;;;;2330073;53;20933;-74
2022/09/12 10:13:39;;;;;;;3.72;1.48;;;22.80;62.10;;;;;;2371995;52;20956;-75
2022/09/12 10:16:26;;;;;;;3.90;1.60;;;22.90;62.10;;;;;;2520810;52;20980;-75
2022/09/12 10:18:53;;;;;;;3.22;1.40;;;23.00;62.10;;;;;;2505919;52;20944;-77
2022/09/12 10:21:53;;;;;;;3.58;1.45;;;23.10;62.30;;;;;;2405656;52;20969;-77
2022/09/12 10:24:38;;;;;;;2.85;1.50;;;23.10;61.70;;;;;;2330674;53;21030;-76
2022/09/12 10:27:15;;;;;;;2.65;1.37;;;23.20;61.80;;;;;;2330471;53;21048;-77
2022/09/12 10:30:16;;;;;;;3.15;1.50;;;23.30;61.90;;;;;;2329312;53;20965;-76
2022/09/12 10:32:50;;;;;;;2.78;1.70;;;23.40;61.30;;;;;;2330922;53;21509;-78
2022/09/12 10:35:24;;;;;;;5.20;1.58;;;23.50;61.50;;;;;;2331845;53;20945;-77
2022/09/12 10:37:57;;;;;;;2.65;1.48;;;23.50;61.40;;;;;;2330332;53;20929;-76
2022/09/12 10:40:28;;;;;;;2.90;1.60;;;23.60;61.10;;;;;;2342057;52;21990;-76
2022/09/12 10:42:56;;;;;;;2.30;1.50;;;23.70;61.40;;;;;;2330961;53;21512;-77
2022/09/12 10:45:34;;;;;;;2.60;1.40;;;23.80;61.40;;;;;;2332973;53;20925;-79
2022/09/12 10:48:30;;;;;;;3.55;1.45;;;23.80;61.10;;;;;;2392071;52;1346950;-76
2022/09/12 10:50:58;;;;;;;2.40;1.37;;;23.90;60.40;;;;;;2330892;53;20949;-75
2022/09/12 10:53:30;;;;;;;2.83;1.52;;;23.90;60.70;;;;;;2330466;53;20936;-76
2022/09/12 10:56:08;;;;;;;2.97;1.40;;;24.00;60.60;;;;;;2500819;52;20953;-75
2022/09/12 10:58:45;;;;;;;2.67;1.40;;;24.10;60.40;;;;;;2330553;53;21019;-75
2022/09/12 11:03:32;;;;;;;2.50;1.35;;;24.10;60.20;;;;;;2329870;53;20960;-76
2022/09/12 11:05:59;;;;;;;2.20;1.20;;;24.20;59.90;;;;;;2331133;53;20933;-75
2022/09/12 11:13:06;;;;;;;2.83;1.30;;;24.30;60.20;;;;;;2349802;53;20933;-75
2022/09/12 11:18:15;;;;;;;1.67;0.82;;;24.40;60.10;;;;;;2333769;53;21008;-76
2022/09/12 11:23:55;;;;;;;2.30;1.20;;;24.70;60.10;;;;;;2330409;53;20928;-75
2022/09/12 11:27:07;;;;;;;2.67;1.00;;;24.90;60.00;;;;;;2330310;53;20968;-78
2022/09/12 11:29:46;;;;;;;2.42;1.20;;;24.90;59.50;;;;;;2330188;53;20948;-75
2022/09/12 11:32:40;;;;;;;2.22;1.23;;;25.00;59.70;;;;;;2482162;52;20980;-77
2022/09/12 11:37:14;;;;;;;2.20;1.20;;;25.10;59.20;;;;;;2330213;53;20933;-76
2022/09/12 11:39:44;;;;;;;2.17;1.00;;;25.20;59.10;;;;;;2330762;53;20952;-75
2022/09/12 11:42:25;;;;;;;2.42;1.10;;;25.20;59.20;;;;;;2330791;53;21032;-75
2022/09/12 11:45:03;;;;;;;2.37;1.05;;;25.30;58.70;;;;;;2329933;53;21047;-75
2022/09/12 11:47:29;;;;;;;2.28;1.17;;;25.40;58.70;;;;;;2330699;53;20944;-75
2022/09/12 11:49:55;;;;;;;2.28;1.10;;;25.40;58.60;;;;;;2558774;52;20921;-78
2022/09/12 11:52:22;;;;;;;1.90;0.93;;;25.50;58.40;;;;;;2330535;53;20956;-77
2022/09/12 11:55:06;;;;;;;2.17;1.00;;;25.50;58.00;;;;;;2330532;53;21028;-75
2022/09/12 11:57:59;;;;;;;2.50;1.00;;;25.60;57.60;;;;;;2595229;52;21055;-76
2022/09/12 12:00:37;;;;;;;2.50;1.20;;;25.70;57.10;;;;;;2330840;53;21957;-75
2022/09/12 12:03:48;;;;;;;2.00;1.00;;;25.70;57.40;;;;;;2330204;53;21039;-78
2022/09/12 12:06:26;;;;;;;1.75;0.82;;;25.70;57.00;;;;;;2537728;52;21003;-76
2022/09/12 12:08:52;;;;;;;1.83;0.80;;;25.80;57.40;;;;;;2500025;52;21043;-76
2022/09/12 12:11:33;;;;;;;1.85;0.90;;;25.80;57.10;;;;;;2330689;53;20972;-75
2022/09/12 12:14:12;;;;;;;1.73;0.97;;;25.90;56.60;;;;;;2332310;53;20976;-75
2022/09/12 12:16:39;;;;;;;1.80;0.90;;;26.00;56.80;;;;;;2330831;53;20996;-75
2022/09/12 12:19:30;;;;;;;1.90;0.88;;;26.00;56.60;;;;;;2574744;52;20917;-75
2022/09/12 12:22:07;;;;;;;2.70;0.98;;;26.00;56.40;;;;;;2331475;53;21002;-75
2022/09/12 12:24:33;;;;;;;1.45;0.80;;;26.10;56.20;;;;;;2458979;52;21542;-75
2022/09/12 12:27:44;;;;;;;1.92;0.90;;;26.10;56.40;;;;;;2333491;53;21012;-75
2022/09/12 12:35:15;;;;;;;1.92;0.90;;;26.20;55.60;;;;;;2330178;53;20945;-75
2022/09/12 12:37:51;;;;;;;1.85;0.88;;;26.30;55.80;;;;;;2330363;53;21004;-76
2022/09/12 12:40:22;;;;;;;1.85;0.82;;;26.40;55.70;;;;;;2575859;52;21003;-78
2022/09/12 12:43:30;;;;;;;1.55;0.70;;;26.50;55.90;;;;;;2339701;52;21019;-75
2022/09/12 12:46:04;;;;;;;2.05;0.88;;;26.50;55.10;;;;;;2330693;53;21496;-78
2022/09/12 12:48:32;;;;;;;1.87;1.02;;;26.60;55.20;;;;;;2575822;52;20976;-75
2022/09/12 12:52:32;;;;;;;2.12;0.98;;;26.60;55.40;;;;;;2330943;52;20905;-78
2022/09/12 12:55:01;;;;;;;1.30;0.73;;;26.70;54.80;;;;;;2330634;53;20932;-75
2022/09/12 12:57:50;;;;;;;1.60;0.80;;;26.70;54.70;;;;;;2330704;53;20980;-76
2022/09/12 13:00:38;;;;;;;1.60;0.80;;;26.70;54.50;;;;;;2330883;53;20932;-76
2022/09/12 13:03:16;;;;;;;1.80;0.82;;;26.80;53.60;;;;;;2330474;53;21627;-76
2022/09/12 13:05:50;;;;;;;1.77;0.80;;;26.80;54.10;;;;;;2575840;52;20925;-78
2022/09/12 13:08:38;;;;;;;2.00;0.80;;;26.80;54.20;;;;;;2345632;52;20909;-76
2022/09/12 13:11:13;;;;;;;3.58;1.40;;;26.90;53.90;;;;;;2329224;53;20959;-77
2022/09/12 13:13:49;;;;;;;2.50;0.90;;;26.90;54.30;;;;;;2365480;52;21037;-76
2022/09/12 13:18:15;;;;;;;2.33;1.00;;;27.00;54.30;;;;;;2330682;53;20964;-77
2022/09/12 13:34:11;;;;;;;2.10;0.80;;;27.10;54.10;;;;;;2330499;53;20956;-76
2022/09/12 13:36:59;;;;;;;0.93;0.47;;;27.10;54.10;;;;;;2466898;52;20936;-77
2022/09/12 13:40:26;;;;;;;1.42;0.68;;;27.40;54.00;;;;;;2330434;53;20901;-76
2022/09/12 13:43:04;;;;;;;1.60;0.65;;;27.50;52.90;;;;;;2331027;53;21416;-75
2022/09/12 13:45:32;;;;;;;1.58;0.70;;;27.50;53.50;;;;;;2330297;53;20964;-75
2022/09/12 13:48:00;;;;;;;1.60;0.70;;;27.50;53.20;;;;;;2330530;53;20981;-76
2022/09/12 13:50:54;;;;;;;1.75;0.77;;;27.50;53.20;;;;;;2329962;53;21012;-76
2022/09/12 13:53:22;;;;;;;1.65;0.80;;;27.60;51.90;;;;;;2330527;53;22012;-76
2022/09/12 13:55:59;;;;;;;1.60;0.65;;;27.60;52.60;;;;;;2330581;53;20960;-78
2022/09/12 13:58:29;;;;;;;2.12;0.80;;;27.70;52.10;;;;;;2330196;53;20921;-76
2022/09/12 14:01:14;;;;;;;1.52;0.70;;;27.70;52.50;;;;;;2546205;52;20980;-76
2022/09/12 14:06:26;;;;;;;1.30;0.57;;;27.80;51.80;;;;;;2330892;53;20939;-76
2022/09/12 14:08:55;;;;;;;1.50;0.75;;;27.80;51.80;;;;;;2574837;52;20944;-77
2022/09/12 14:11:29;;;;;;;1.85;0.82;;;27.80;51.70;;;;;;2351830;52;20960;-76
2022/09/12 14:13:55;;;;;;;1.58;0.60;;;27.90;51.60;;;;;;2346229;52;21916;-76
2022/09/12 14:16:23;;;;;;;1.37;0.65;;;27.90;51.50;;;;;;2329327;53;20941;-76
2022/09/12 14:18:50;;;;;;;1.60;0.70;;;27.90;51.50;;;;;;2330217;53;21039;-78
2022/09/12 14:22:17;;;;;;;1.62;0.62;;;28.00;51.40;;;;;;2369951;52;22237;-77
2022/09/12 14:24:49;;;;;;;1.30;0.57;;;28.00;50.50;;;;;;2335819;53;20996;-78
2022/09/12 14:27:24;;;;;;;1.55;0.60;;;28.10;50.80;;;;;;2331047;53;20936;-76
2022/09/12 14:29:54;;;;;;;1.45;0.60;;;28.10;50.40;;;;;;2327867;53;20984;-76